Aviation Digital Data Service (ADDS)

Output produced by METARs form (0408 UTC 19 August 2019)
found at http://www.aviationweather.gov/metar/data/
 
METAR text: VGEG 190400Z 15008KT 5000 FEW018 SCT120 31/26 Q1008 NOSIG
Conditions at: VGEG (CHITTAGONG (CV/M, BD) observed 0400 UTC 19 August 2019
Temperature: 31.0°C (88°F)
Dewpoint: 26.0°C (79°F) [RH = 75%]
Pressure (altimeter): 29.76 inches Hg (1008.0 mb)
Winds: from the SSE (150 degrees) at 9 MPH (8 knots; 4.1 m/s)
Visibility: 3 miles ( 5 km)
Ceiling: at least 12,000 feet AGL
Clouds: few clouds at 1800 feet AGL
scattered clouds at 12000 feet AGL
Weather: no significant weather observed at this time

METAR text: VGEG 190300Z 18004KT 5000 FEW018 SCT120 31/26 Q1008 NOSIG
Conditions at: VGEG (CHITTAGONG (CV/M, BD) observed 0300 UTC 19 August 2019
Temperature: 31.0°C (88°F)
Dewpoint: 26.0°C (79°F) [RH = 75%]
Pressure (altimeter): 29.76 inches Hg (1008.0 mb)
Winds: from the S (180 degrees) at 5 MPH (4 knots; 2.1 m/s)
Visibility: 3 miles ( 5 km)
Ceiling: at least 12,000 feet AGL
Clouds: few clouds at 1800 feet AGL
scattered clouds at 12000 feet AGL
Weather: no significant weather observed at this time

METAR text: VGEG 190200Z 15004KT 4000 FEW018 SCT120 29/26 Q1008 NOSIG
Conditions at: VGEG (CHITTAGONG (CV/M, BD) observed 0200 UTC 19 August 2019
Temperature: 29.0°C (84°F)
Dewpoint: 26.0°C (79°F) [RH = 84%]
Pressure (altimeter): 29.76 inches Hg (1008.0 mb)
Winds: from the SSE (150 degrees) at 5 MPH (4 knots; 2.1 m/s)
Visibility: 2.49 miles (4.01 km)
Ceiling: at least 12,000 feet AGL
Clouds: few clouds at 1800 feet AGL
scattered clouds at 12000 feet AGL
Weather: no significant weather observed at this time

METAR text: VGEG 190100Z 12004KT 4000 FEW018 SCT120 27/26 Q1007 NOSIG
Conditions at: VGEG (CHITTAGONG (CV/M, BD) observed 0100 UTC 19 August 2019
Temperature: 27.0°C (81°F)
Dewpoint: 26.0°C (79°F) [RH = 94%]
Pressure (altimeter): 29.73 inches Hg (1007.0 mb)
Winds: from the ESE (120 degrees) at 5 MPH (4 knots; 2.1 m/s)
Visibility: 2.49 miles (4.01 km)
Ceiling: at least 12,000 feet AGL
Clouds: few clouds at 1800 feet AGL
scattered clouds at 12000 feet AGL
Weather: no significant weather observed at this time

METAR text: VGEG 190000Z 15004KT 4000 FEW018 SCT120 27/26 Q1007 NOSIG
Conditions at: VGEG (CHITTAGONG (CV/M, BD) observed 0000 UTC 19 August 2019
Temperature: 27.0°C (81°F)
Dewpoint: 26.0°C (79°F) [RH = 94%]
Pressure (altimeter): 29.73 inches Hg (1007.0 mb)
Winds: from the SSE (150 degrees) at 5 MPH (4 knots; 2.1 m/s)
Visibility: 2.49 miles (4.01 km)
Ceiling: at least 12,000 feet AGL
Clouds: few clouds at 1800 feet AGL
scattered clouds at 12000 feet AGL
Weather: no significant weather observed at this time

METAR text: VGEG 181700Z 15004KT 5000 FEW018 SCT120 29/26 Q1008 NOSIG
Conditions at: VGEG (CHITTAGONG (CV/M, BD) observed 1700 UTC 18 August 2019
Temperature: 29.0°C (84°F)
Dewpoint: 26.0°C (79°F) [RH = 84%]
Pressure (altimeter): 29.76 inches Hg (1008.0 mb)
Winds: from the SSE (150 degrees) at 5 MPH (4 knots; 2.1 m/s)
Visibility: 3 miles ( 5 km)
Ceiling: at least 12,000 feet AGL
Clouds: few clouds at 1800 feet AGL
scattered clouds at 12000 feet AGL
Weather: no significant weather observed at this time

METAR text: VGEG 181600Z 18005KT 5000 FEW018 SCT120 29/26 Q1008 NOSIG
Conditions at: VGEG (CHITTAGONG (CV/M, BD) observed 1600 UTC 18 August 2019
Temperature: 29.0°C (84°F)
Dewpoint: 26.0°C (79°F) [RH = 84%]
Pressure (altimeter): 29.76 inches Hg (1008.0 mb)
Winds: from the S (180 degrees) at 6 MPH (5 knots; 2.6 m/s)
Visibility: 3 miles ( 5 km)
Ceiling: at least 12,000 feet AGL
Clouds: few clouds at 1800 feet AGL
scattered clouds at 12000 feet AGL
Weather: no significant weather observed at this time

METAR text: VGEG 181500Z 18006KT 5000 FEW018 SCT120 29/26 Q1007 NOSIG
Conditions at: VGEG (CHITTAGONG (CV/M, BD) observed 1500 UTC 18 August 2019
Temperature: 29.0°C (84°F)
Dewpoint: 26.0°C (79°F) [RH = 84%]
Pressure (altimeter): 29.73 inches Hg (1007.0 mb)
Winds: from the S (180 degrees) at 7 MPH (6 knots; 3.1 m/s)
Visibility: 3 miles ( 5 km)
Ceiling: at least 12,000 feet AGL
Clouds: few clouds at 1800 feet AGL
scattered clouds at 12000 feet AGL
Weather: no significant weather observed at this time

METAR text: VGEG 181400Z 20005KT 5000 FEW018 SCT120 29/25 Q1007 NOSIG
Conditions at: VGEG (CHITTAGONG (CV/M, BD) observed 1400 UTC 18 August 2019
Temperature: 29.0°C (84°F)
Dewpoint: 25.0°C (77°F) [RH = 79%]
Pressure (altimeter): 29.73 inches Hg (1007.0 mb)
Winds: from the SSW (200 degrees) at 6 MPH (5 knots; 2.6 m/s)
Visibility: 3 miles ( 5 km)
Ceiling: at least 12,000 feet AGL
Clouds: few clouds at 1800 feet AGL
scattered clouds at 12000 feet AGL
Weather: no significant weather observed at this time

METAR text: VGEG 181300Z 23005KT 5000 FEW018 SCT120 30/26 Q1006 NOSIG
Conditions at: VGEG (CHITTAGONG (CV/M, BD) observed 1300 UTC 18 August 2019
Temperature: 30.0°C (86°F)
Dewpoint: 26.0°C (79°F) [RH = 79%]
Pressure (altimeter): 29.70 inches Hg (1006.0 mb)
Winds: from the SW (230 degrees) at 6 MPH (5 knots; 2.6 m/s)
Visibility: 3 miles ( 5 km)
Ceiling: at least 12,000 feet AGL
Clouds: few clouds at 1800 feet AGL
scattered clouds at 12000 feet AGL
Weather: no significant weather observed at this time

Forecast for: VGEG (CHITTAGONG (CV/M, BD)
Text: TAF VGEG 182300Z 1900/2006 14008KT 4000 HZ SCT018
Forecast period: 0000 to 0300 UTC 19 August 2019
Forecast type: FROM: standard forecast or significant change
Winds: from the SE (140 degrees) at 9 MPH (8 knots; 4.1 m/s)
Visibility: 2.49 miles (4.01 km)
Ceiling: at least 12,000 feet AGL
Clouds: scattered clouds at 1800 feet AGL
Weather: HZ  (haze)
Text: BECMG 1903/1905 18010KT 4000 HZ SCT016
Forecast period: 0300 to 1000 UTC 19 August 2019
Forecast type: BECOMING: Conditions expected to become as follows by 0500 UTC 19 August 2019
Winds: from the S (180 degrees) at 12 MPH (10 knots; 5.1 m/s)
Visibility: 2.49 miles (4.01 km)
Ceiling: at least 12,000 feet AGL
Clouds: scattered clouds at 1600 feet AGL
Weather: HZ  (haze)
Text: BECMG 1910/1912 19010KT 3500 HZ/DZ SCT015 BKN100
Forecast period: 1000 to 2000 UTC 19 August 2019
Forecast type: BECOMING: Conditions expected to become as follows by 1200 UTC 19 August 2019
Winds: from the S (190 degrees) at 12 MPH (10 knots; 5.1 m/s)
Visibility: 2.17 miles (3.49 km)
Ceiling: 10000 feet AGL
Clouds: scattered clouds at 1500 feet AGL
broken clouds at 10000 feet AGL
Weather: DZ HZ  (moderate drizzle, haze)
Text: BECMG 1920/1922 16010KT 3500 DZ/HZ SCT015 BKN090
Forecast period: 2000 UTC 19 August 2019 to 0300 UTC 20 August 2019
Forecast type: BECOMING: Conditions expected to become as follows by 2200 UTC 19 August 2019
Winds: from the SSE (160 degrees) at 12 MPH (10 knots; 5.1 m/s)
Visibility: 2.17 miles (3.49 km)
Ceiling: 9000 feet AGL
Clouds: scattered clouds at 1500 feet AGL
broken clouds at 9000 feet AGL
Weather: DZ HZ  (moderate drizzle, haze)
Text: BECMG 2003/2005 17010KT 4000 HZ SCT018
Forecast period: 0300 to 0600 UTC 20 August 2019
Forecast type: BECOMING: Conditions expected to become as follows by 0500 UTC 20 August 2019
Winds: from the S (170 degrees) at 12 MPH (10 knots; 5.1 m/s)
Visibility: 2.49 miles (4.01 km)
Ceiling: at least 12,000 feet AGL
Clouds: scattered clouds at 1800 feet AGL
Weather: HZ  (haze)